sensor_id;sensor_type;location;lat;lon;timestamp;P1;durP1;ratioP1;P2;durP2;ratioP2
25111;SDS011;13092;51.996;4.458;2024-02-23T00:01:36;43.63;;;39.70;;
25111;SDS011;13092;51.996;4.458;2024-02-23T00:04:05;44.33;;;40.42;;
25111;SDS011;13092;51.996;4.458;2024-02-23T00:06:34;43.17;;;39.30;;
25111;SDS011;13092;51.996;4.458;2024-02-23T00:09:02;42.72;;;39.00;;
25111;SDS011;13092;51.996;4.458;2024-02-23T00:11:33;42.40;;;38.88;;
25111;SDS011;13092;51.996;4.458;2024-02-23T00:14:06;44.45;;;40.42;;
25111;SDS011;13092;51.996;4.458;2024-02-23T00:16:39;43.47;;;39.85;;
25111;SDS011;13092;51.996;4.458;2024-02-23T00:19:08;46.80;;;42.45;;
25111;SDS011;13092;51.996;4.458;2024-02-23T00:21:36;46.30;;;42.28;;
25111;SDS011;13092;51.996;4.458;2024-02-23T00:24:05;42.95;;;39.15;;
25111;SDS011;13092;51.996;4.458;2024-02-23T00:26:34;44.85;;;40.95;;
25111;SDS011;13092;51.996;4.458;2024-02-23T00:29:02;46.95;;;42.40;;
25111;SDS011;13092;51.996;4.458;2024-02-23T00:31:30;48.58;;;44.17;;
25111;SDS011;13092;51.996;4.458;2024-02-23T00:34:00;52.13;;;47.15;;
25111;SDS011;13092;51.996;4.458;2024-02-23T00:36:28;51.85;;;46.53;;
25111;SDS011;13092;51.996;4.458;2024-02-23T00:38:56;51.03;;;46.20;;
25111;SDS011;13092;51.996;4.458;2024-02-23T00:41:24;52.17;;;47.38;;
25111;SDS011;13092;51.996;4.458;2024-02-23T00:43:52;53.25;;;48.42;;
25111;SDS011;13092;51.996;4.458;2024-02-23T00:46:21;52.33;;;47.70;;
25111;SDS011;13092;51.996;4.458;2024-02-23T00:48:51;50.80;;;46.15;;
25111;SDS011;13092;51.996;4.458;2024-02-23T00:51:26;51.97;;;46.97;;
25111;SDS011;13092;51.996;4.458;2024-02-23T00:53:54;54.20;;;49.10;;
25111;SDS011;13092;51.996;4.458;2024-02-23T00:56:24;55.27;;;49.93;;
25111;SDS011;13092;51.996;4.458;2024-02-23T00:59:06;52.42;;;47.20;;
25111;SDS011;13092;51.996;4.458;2024-02-23T01:01:34;51.77;;;46.80;;
25111;SDS011;13092;51.996;4.458;2024-02-23T01:04:02;52.83;;;47.93;;
25111;SDS011;13092;51.996;4.458;2024-02-23T01:06:32;52.77;;;47.60;;
25111;SDS011;13092;51.996;4.458;2024-02-23T01:09:00;53.10;;;48.43;;
25111;SDS011;13092;51.996;4.458;2024-02-23T01:11:30;52.17;;;47.67;;
25111;SDS011;13092;51.996;4.458;2024-02-23T01:13:59;52.38;;;47.53;;
25111;SDS011;13092;51.996;4.458;2024-02-23T01:16:30;53.93;;;48.90;;
25111;SDS011;13092;51.996;4.458;2024-02-23T01:18:58;51.90;;;47.13;;
25111;SDS011;13092;51.996;4.458;2024-02-23T01:21:27;51.60;;;46.90;;
25111;SDS011;13092;51.996;4.458;2024-02-23T01:23:57;52.00;;;47.23;;
25111;SDS011;13092;51.996;4.458;2024-02-23T01:26:27;50.33;;;45.87;;
25111;SDS011;13092;51.996;4.458;2024-02-23T01:28:55;52.43;;;47.93;;
25111;SDS011;13092;51.996;4.458;2024-02-23T01:31:23;50.93;;;46.47;;
25111;SDS011;13092;51.996;4.458;2024-02-23T01:33:51;50.70;;;45.93;;
25111;SDS011;13092;51.996;4.458;2024-02-23T01:36:19;51.13;;;46.60;;
25111;SDS011;13092;51.996;4.458;2024-02-23T01:38:48;48.80;;;44.50;;
25111;SDS011;13092;51.996;4.458;2024-02-23T01:41:17;51.88;;;47.03;;
25111;SDS011;13092;51.996;4.458;2024-02-23T01:43:45;50.73;;;46.23;;
25111;SDS011;13092;51.996;4.458;2024-02-23T01:46:13;51.33;;;46.23;;
25111;SDS011;13092;51.996;4.458;2024-02-23T01:48:45;47.57;;;43.43;;
25111;SDS011;13092;51.996;4.458;2024-02-23T01:51:13;47.90;;;43.90;;
25111;SDS011;13092;51.996;4.458;2024-02-23T01:53:42;48.87;;;44.73;;
25111;SDS011;13092;51.996;4.458;2024-02-23T01:56:13;51.83;;;47.00;;
25111;SDS011;13092;51.996;4.458;2024-02-23T01:58:47;51.63;;;47.00;;
25111;SDS011;13092;51.996;4.458;2024-02-23T02:01:15;50.70;;;46.10;;
25111;SDS011;13092;51.996;4.458;2024-02-23T02:03:43;50.20;;;45.63;;
25111;SDS011;13092;51.996;4.458;2024-02-23T02:06:11;51.03;;;46.80;;
25111;SDS011;13092;51.996;4.458;2024-02-23T02:08:40;51.53;;;46.93;;
25111;SDS011;13092;51.996;4.458;2024-02-23T02:11:08;53.27;;;48.07;;
25111;SDS011;13092;51.996;4.458;2024-02-23T02:13:37;51.43;;;46.63;;
25111;SDS011;13092;51.996;4.458;2024-02-23T02:16:06;52.23;;;47.53;;
25111;SDS011;13092;51.996;4.458;2024-02-23T02:18:34;52.67;;;48.07;;
25111;SDS011;13092;51.996;4.458;2024-02-23T02:21:02;51.97;;;47.13;;
25111;SDS011;13092;51.996;4.458;2024-02-23T02:23:31;51.55;;;47.08;;
25111;SDS011;13092;51.996;4.458;2024-02-23T02:26:00;50.63;;;46.27;;
25111;SDS011;13092;51.996;4.458;2024-02-23T02:28:28;51.10;;;46.37;;
25111;SDS011;13092;51.996;4.458;2024-02-23T02:30:56;50.05;;;45.60;;
25111;SDS011;13092;51.996;4.458;2024-02-23T02:33:26;50.08;;;45.78;;
25111;SDS011;13092;51.996;4.458;2024-02-23T02:35:54;48.90;;;44.65;;
25111;SDS011;13092;51.996;4.458;2024-02-23T02:38:22;47.57;;;43.50;;
25111;SDS011;13092;51.996;4.458;2024-02-23T02:40:50;49.08;;;44.53;;
25111;SDS011;13092;51.996;4.458;2024-02-23T02:43:18;50.97;;;46.67;;
25111;SDS011;13092;51.996;4.458;2024-02-23T02:45:47;50.15;;;45.67;;
25111;SDS011;13092;51.996;4.458;2024-02-23T02:48:15;48.50;;;44.17;;
25111;SDS011;13092;51.996;4.458;2024-02-23T02:50:45;53.50;;;48.47;;
25111;SDS011;13092;51.996;4.458;2024-02-23T02:53:14;53.27;;;48.33;;
25111;SDS011;13092;51.996;4.458;2024-02-23T02:55:42;50.10;;;45.33;;
25111;SDS011;13092;51.996;4.458;2024-02-23T02:58:11;53.83;;;49.37;;
25111;SDS011;13092;51.996;4.458;2024-02-23T03:00:40;53.53;;;49.03;;
25111;SDS011;13092;51.996;4.458;2024-02-23T03:03:08;54.35;;;49.70;;
25111;SDS011;13092;51.996;4.458;2024-02-23T03:05:36;55.67;;;50.55;;
25111;SDS011;13092;51.996;4.458;2024-02-23T03:08:06;53.70;;;48.70;;
25111;SDS011;13092;51.996;4.458;2024-02-23T03:10:34;56.33;;;51.03;;
25111;SDS011;13092;51.996;4.458;2024-02-23T03:13:02;56.40;;;51.23;;
25111;SDS011;13092;51.996;4.458;2024-02-23T03:15:31;58.03;;;52.42;;
25111;SDS011;13092;51.996;4.458;2024-02-23T03:17:59;54.00;;;49.40;;
25111;SDS011;13092;51.996;4.458;2024-02-23T03:20:28;56.23;;;50.93;;
25111;SDS011;13092;51.996;4.458;2024-02-23T03:22:57;52.80;;;48.17;;
25111;SDS011;13092;51.996;4.458;2024-02-23T03:25:26;56.23;;;51.33;;
25111;SDS011;13092;51.996;4.458;2024-02-23T03:27:54;56.07;;;51.30;;
25111;SDS011;13092;51.996;4.458;2024-02-23T03:30:22;55.20;;;50.10;;
25111;SDS011;13092;51.996;4.458;2024-02-23T03:32:51;54.27;;;49.47;;
25111;SDS011;13092;51.996;4.458;2024-02-23T03:35:19;54.83;;;49.80;;
25111;SDS011;13092;51.996;4.458;2024-02-23T03:37:47;57.40;;;52.03;;
25111;SDS011;13092;51.996;4.458;2024-02-23T03:40:15;54.63;;;49.90;;
25111;SDS011;13092;51.996;4.458;2024-02-23T03:42:46;58.07;;;52.47;;
25111;SDS011;13092;51.996;4.458;2024-02-23T03:45:14;56.97;;;51.67;;
25111;SDS011;13092;51.996;4.458;2024-02-23T03:47:42;54.23;;;49.43;;
25111;SDS011;13092;51.996;4.458;2024-02-23T03:50:10;56.07;;;50.73;;
25111;SDS011;13092;51.996;4.458;2024-02-23T03:52:38;57.33;;;52.07;;
25111;SDS011;13092;51.996;4.458;2024-02-23T03:55:07;57.13;;;51.93;;
25111;SDS011;13092;51.996;4.458;2024-02-23T03:57:35;56.97;;;51.57;;
25111;SDS011;13092;51.996;4.458;2024-02-23T04:00:05;57.47;;;52.07;;
25111;SDS011;13092;51.996;4.458;2024-02-23T04:02:35;57.83;;;52.53;;
25111;SDS011;13092;51.996;4.458;2024-02-23T04:05:04;56.70;;;51.53;;
25111;SDS011;13092;51.996;4.458;2024-02-23T04:07:32;57.30;;;52.30;;
25111;SDS011;13092;51.996;4.458;2024-02-23T04:10:01;56.13;;;50.93;;
25111;SDS011;13092;51.996;4.458;2024-02-23T04:12:31;57.40;;;51.93;;
25111;SDS011;13092;51.996;4.458;2024-02-23T04:14:59;57.23;;;51.60;;
25111;SDS011;13092;51.996;4.458;2024-02-23T04:17:28;58.23;;;52.57;;
25111;SDS011;13092;51.996;4.458;2024-02-23T04:19:57;56.97;;;51.67;;
25111;SDS011;13092;51.996;4.458;2024-02-23T04:22:26;58.73;;;53.17;;
25111;SDS011;13092;51.996;4.458;2024-02-23T04:24:54;57.97;;;52.47;;
25111;SDS011;13092;51.996;4.458;2024-02-23T04:27:22;57.73;;;52.13;;
25111;SDS011;13092;51.996;4.458;2024-02-23T04:29:50;58.07;;;52.90;;
25111;SDS011;13092;51.996;4.458;2024-02-23T04:32:18;57.13;;;52.13;;
25111;SDS011;13092;51.996;4.458;2024-02-23T04:34:47;56.33;;;50.93;;
25111;SDS011;13092;51.996;4.458;2024-02-23T04:37:15;54.60;;;49.47;;
25111;SDS011;13092;51.996;4.458;2024-02-23T04:39:43;56.17;;;50.83;;
25111;SDS011;13092;51.996;4.458;2024-02-23T04:42:11;55.97;;;50.70;;
25111;SDS011;13092;51.996;4.458;2024-02-23T04:44:40;55.90;;;50.60;;
25111;SDS011;13092;51.996;4.458;2024-02-23T04:47:09;56.03;;;51.00;;
25111;SDS011;13092;51.996;4.458;2024-02-23T04:49:37;55.43;;;50.43;;
25111;SDS011;13092;51.996;4.458;2024-02-23T04:52:07;55.57;;;50.57;;
25111;SDS011;13092;51.996;4.458;2024-02-23T04:54:35;55.07;;;50.37;;
25111;SDS011;13092;51.996;4.458;2024-02-23T04:57:03;52.67;;;48.17;;
25111;SDS011;13092;51.996;4.458;2024-02-23T04:59:31;52.37;;;47.87;;
25111;SDS011;13092;51.996;4.458;2024-02-23T05:02:00;51.07;;;46.77;;
25111;SDS011;13092;51.996;4.458;2024-02-23T05:04:28;51.63;;;47.10;;
25111;SDS011;13092;51.996;4.458;2024-02-23T05:06:56;53.00;;;48.50;;
25111;SDS011;13092;51.996;4.458;2024-02-23T05:09:26;54.90;;;50.20;;
25111;SDS011;13092;51.996;4.458;2024-02-23T05:11:54;53.77;;;48.97;;
25111;SDS011;13092;51.996;4.458;2024-02-23T05:14:22;55.03;;;50.07;;
25111;SDS011;13092;51.996;4.458;2024-02-23T05:16:51;55.93;;;50.90;;
25111;SDS011;13092;51.996;4.458;2024-02-23T05:19:19;56.40;;;51.03;;
25111;SDS011;13092;51.996;4.458;2024-02-23T05:21:47;53.90;;;49.07;;
25111;SDS011;13092;51.996;4.458;2024-02-23T05:24:15;54.27;;;49.07;;
25111;SDS011;13092;51.996;4.458;2024-02-23T05:26:45;53.87;;;48.87;;
25111;SDS011;13092;51.996;4.458;2024-02-23T05:29:14;54.03;;;49.33;;
25111;SDS011;13092;51.996;4.458;2024-02-23T05:31:46;51.83;;;47.23;;
25111;SDS011;13092;51.996;4.458;2024-02-23T05:34:16;54.53;;;49.83;;
25111;SDS011;13092;51.996;4.458;2024-02-23T05:36:45;54.87;;;50.13;;
25111;SDS011;13092;51.996;4.458;2024-02-23T05:39:13;53.90;;;49.23;;
25111;SDS011;13092;51.996;4.458;2024-02-23T05:41:45;55.00;;;50.37;;
25111;SDS011;13092;51.996;4.458;2024-02-23T05:44:13;52.53;;;48.03;;
25111;SDS011;13092;51.996;4.458;2024-02-23T05:46:42;52.42;;;47.88;;
25111;SDS011;13092;51.996;4.458;2024-02-23T05:49:10;52.87;;;48.33;;
25111;SDS011;13092;51.996;4.458;2024-02-23T05:51:39;51.93;;;47.33;;
25111;SDS011;13092;51.996;4.458;2024-02-23T05:54:07;51.53;;;47.13;;
25111;SDS011;13092;51.996;4.458;2024-02-23T05:56:35;51.30;;;46.70;;
25111;SDS011;13092;51.996;4.458;2024-02-23T05:59:05;52.57;;;47.63;;
25111;SDS011;13092;51.996;4.458;2024-02-23T06:01:34;51.47;;;46.77;;
25111;SDS011;13092;51.996;4.458;2024-02-23T06:04:02;55.40;;;50.20;;
25111;SDS011;13092;51.996;4.458;2024-02-23T06:06:31;52.17;;;47.53;;
25111;SDS011;13092;51.996;4.458;2024-02-23T06:09:00;54.20;;;49.10;;
25111;SDS011;13092;51.996;4.458;2024-02-23T06:11:29;53.70;;;48.77;;
25111;SDS011;13092;51.996;4.458;2024-02-23T06:13:57;51.23;;;46.90;;
25111;SDS011;13092;51.996;4.458;2024-02-23T06:16:26;52.60;;;47.70;;
25111;SDS011;13092;51.996;4.458;2024-02-23T06:18:55;52.33;;;47.77;;
25111;SDS011;13092;51.996;4.458;2024-02-23T06:21:23;52.77;;;48.20;;
25111;SDS011;13092;51.996;4.458;2024-02-23T06:23:51;53.03;;;48.50;;
25111;SDS011;13092;51.996;4.458;2024-02-23T06:26:19;53.53;;;48.93;;
25111;SDS011;13092;51.996;4.458;2024-02-23T06:28:47;51.33;;;46.77;;
25111;SDS011;13092;51.996;4.458;2024-02-23T06:31:16;52.90;;;48.20;;
25111;SDS011;13092;51.996;4.458;2024-02-23T06:33:45;51.73;;;47.00;;
25111;SDS011;13092;51.996;4.458;2024-02-23T06:36:16;50.27;;;45.57;;
25111;SDS011;13092;51.996;4.458;2024-02-23T06:38:44;49.63;;;44.97;;
25111;SDS011;13092;51.996;4.458;2024-02-23T06:41:12;49.97;;;45.27;;
25111;SDS011;13092;51.996;4.458;2024-02-23T06:43:41;47.87;;;43.37;;
25111;SDS011;13092;51.996;4.458;2024-02-23T06:46:09;45.37;;;41.00;;
25111;SDS011;13092;51.996;4.458;2024-02-23T06:48:37;45.43;;;40.87;;
25111;SDS011;13092;51.996;4.458;2024-02-23T06:51:07;46.43;;;41.77;;
25111;SDS011;13092;51.996;4.458;2024-02-23T06:53:36;47.80;;;43.20;;
25111;SDS011;13092;51.996;4.458;2024-02-23T06:56:05;47.37;;;43.00;;
25111;SDS011;13092;51.996;4.458;2024-02-23T06:58:35;47.53;;;42.63;;
25111;SDS011;13092;51.996;4.458;2024-02-23T07:01:03;47.33;;;42.13;;
25111;SDS011;13092;51.996;4.458;2024-02-23T07:03:33;45.35;;;41.00;;
25111;SDS011;13092;51.996;4.458;2024-02-23T07:06:03;45.73;;;41.53;;
25111;SDS011;13092;51.996;4.458;2024-02-23T07:08:33;46.40;;;41.80;;
25111;SDS011;13092;51.996;4.458;2024-02-23T07:11:01;47.10;;;42.70;;
25111;SDS011;13092;51.996;4.458;2024-02-23T07:13:30;46.10;;;41.67;;
25111;SDS011;13092;51.996;4.458;2024-02-23T07:15:59;45.90;;;41.20;;
25111;SDS011;13092;51.996;4.458;2024-02-23T07:18:28;47.83;;;43.23;;
25111;SDS011;13092;51.996;4.458;2024-02-23T07:20:56;46.73;;;42.13;;
25111;SDS011;13092;51.996;4.458;2024-02-23T07:23:24;47.80;;;43.27;;
25111;SDS011;13092;51.996;4.458;2024-02-23T07:25:54;45.97;;;41.63;;
25111;SDS011;13092;51.996;4.458;2024-02-23T07:28:22;45.77;;;41.37;;
25111;SDS011;13092;51.996;4.458;2024-02-23T07:30:50;46.07;;;41.53;;
25111;SDS011;13092;51.996;4.458;2024-02-23T07:33:19;44.97;;;40.57;;
25111;SDS011;13092;51.996;4.458;2024-02-23T07:35:47;46.20;;;41.50;;
25111;SDS011;13092;51.996;4.458;2024-02-23T07:38:15;49.03;;;44.17;;
25111;SDS011;13092;51.996;4.458;2024-02-23T07:40:44;49.30;;;44.40;;
25111;SDS011;13092;51.996;4.458;2024-02-23T07:43:14;49.07;;;44.30;;
25111;SDS011;13092;51.996;4.458;2024-02-23T07:45:42;48.70;;;44.00;;
25111;SDS011;13092;51.996;4.458;2024-02-23T07:48:10;47.00;;;42.40;;
25111;SDS011;13092;51.996;4.458;2024-02-23T07:50:38;48.90;;;44.20;;
25111;SDS011;13092;51.996;4.458;2024-02-23T07:53:07;48.40;;;42.50;;
25111;SDS011;13092;51.996;4.458;2024-02-23T07:55:35;47.03;;;42.17;;
25111;SDS011;13092;51.996;4.458;2024-02-23T07:58:03;46.87;;;41.80;;
25111;SDS011;13092;51.996;4.458;2024-02-23T08:00:33;46.40;;;41.77;;
25111;SDS011;13092;51.996;4.458;2024-02-23T08:03:04;47.73;;;42.60;;
25111;SDS011;13092;51.996;4.458;2024-02-23T08:05:35;45.30;;;40.63;;
25111;SDS011;13092;51.996;4.458;2024-02-23T08:08:03;46.67;;;41.50;;
25111;SDS011;13092;51.996;4.458;2024-02-23T08:10:33;46.27;;;41.47;;
25111;SDS011;13092;51.996;4.458;2024-02-23T08:13:01;46.10;;;41.07;;
25111;SDS011;13092;51.996;4.458;2024-02-23T08:15:29;44.87;;;40.17;;
25111;SDS011;13092;51.996;4.458;2024-02-23T08:17:58;46.37;;;41.47;;
25111;SDS011;13092;51.996;4.458;2024-02-23T08:20:27;47.47;;;42.33;;
25111;SDS011;13092;51.996;4.458;2024-02-23T08:22:55;46.90;;;41.80;;
25111;SDS011;13092;51.996;4.458;2024-02-23T08:25:23;47.10;;;42.20;;
25111;SDS011;13092;51.996;4.458;2024-02-23T08:27:54;48.17;;;42.60;;
25111;SDS011;13092;51.996;4.458;2024-02-23T08:30:24;48.87;;;43.90;;
25111;SDS011;13092;51.996;4.458;2024-02-23T08:32:52;47.47;;;42.37;;
25111;SDS011;13092;51.996;4.458;2024-02-23T08:35:24;47.10;;;42.00;;
25111;SDS011;13092;51.996;4.458;2024-02-23T08:37:52;46.87;;;41.93;;
25111;SDS011;13092;51.996;4.458;2024-02-23T08:40:21;45.27;;;40.50;;
25111;SDS011;13092;51.996;4.458;2024-02-23T08:42:49;46.03;;;41.30;;
25111;SDS011;13092;51.996;4.458;2024-02-23T08:45:18;46.13;;;41.60;;
25111;SDS011;13092;51.996;4.458;2024-02-23T08:47:46;47.27;;;42.33;;
25111;SDS011;13092;51.996;4.458;2024-02-23T08:50:14;46.07;;;41.33;;
25111;SDS011;13092;51.996;4.458;2024-02-23T08:52:44;45.17;;;40.37;;
25111;SDS011;13092;51.996;4.458;2024-02-23T08:55:12;43.33;;;38.73;;
25111;SDS011;13092;51.996;4.458;2024-02-23T08:57:40;43.70;;;38.90;;
25111;SDS011;13092;51.996;4.458;2024-02-23T09:00:09;44.80;;;40.03;;
25111;SDS011;13092;51.996;4.458;2024-02-23T09:02:43;44.13;;;39.33;;
25111;SDS011;13092;51.996;4.458;2024-02-23T09:05:11;45.37;;;40.07;;
25111;SDS011;13092;51.996;4.458;2024-02-23T09:07:39;44.20;;;39.63;;
25111;SDS011;13092;51.996;4.458;2024-02-23T09:10:10;43.83;;;39.57;;
25111;SDS011;13092;51.996;4.458;2024-02-23T09:12:39;43.73;;;39.37;;
25111;SDS011;13092;51.996;4.458;2024-02-23T09:15:07;44.63;;;39.70;;
25111;SDS011;13092;51.996;4.458;2024-02-23T09:17:36;42.65;;;38.45;;
25111;SDS011;13092;51.996;4.458;2024-02-23T09:20:04;44.10;;;39.43;;
25111;SDS011;13092;51.996;4.458;2024-02-23T09:22:33;43.70;;;39.10;;
25111;SDS011;13092;51.996;4.458;2024-02-23T09:25:02;43.57;;;39.07;;
25111;SDS011;13092;51.996;4.458;2024-02-23T09:27:33;43.70;;;39.20;;
25111;SDS011;13092;51.996;4.458;2024-02-23T09:30:03;43.57;;;38.97;;
25111;SDS011;13092;51.996;4.458;2024-02-23T09:32:32;43.07;;;38.53;;
25111;SDS011;13092;51.996;4.458;2024-02-23T09:35:00;43.60;;;39.27;;
25111;SDS011;13092;51.996;4.458;2024-02-23T09:37:30;43.47;;;39.17;;
25111;SDS011;13092;51.996;4.458;2024-02-23T09:39:58;42.47;;;38.20;;
25111;SDS011;13092;51.996;4.458;2024-02-23T09:42:27;43.90;;;39.40;;
25111;SDS011;13092;51.996;4.458;2024-02-23T09:45:00;42.92;;;38.35;;
25111;SDS011;13092;51.996;4.458;2024-02-23T09:47:28;43.58;;;38.25;;
25111;SDS011;13092;51.996;4.458;2024-02-23T09:49:58;43.70;;;39.40;;
25111;SDS011;13092;51.996;4.458;2024-02-23T09:52:31;43.60;;;39.35;;
25111;SDS011;13092;51.996;4.458;2024-02-23T09:55:00;41.85;;;37.85;;
25111;SDS011;13092;51.996;4.458;2024-02-23T09:57:30;42.55;;;38.45;;
25111;SDS011;13092;51.996;4.458;2024-02-23T09:59:59;42.57;;;38.53;;
25111;SDS011;13092;51.996;4.458;2024-02-23T10:02:32;43.55;;;39.33;;
25111;SDS011;13092;51.996;4.458;2024-02-23T10:05:02;43.25;;;39.15;;
25111;SDS011;13092;51.996;4.458;2024-02-23T10:07:34;43.25;;;39.10;;
25111;SDS011;13092;51.996;4.458;2024-02-23T10:10:06;41.83;;;37.70;;
25111;SDS011;13092;51.996;4.458;2024-02-23T10:12:34;42.08;;;38.20;;
25111;SDS011;13092;51.996;4.458;2024-02-23T10:15:05;40.72;;;37.10;;
25111;SDS011;13092;51.996;4.458;2024-02-23T10:17:34;41.45;;;37.10;;
25111;SDS011;13092;51.996;4.458;2024-02-23T10:20:03;41.13;;;37.22;;
25111;SDS011;13092;51.996;4.458;2024-02-23T10:22:32;41.05;;;37.45;;
25111;SDS011;13092;51.996;4.458;2024-02-23T10:25:01;42.08;;;38.17;;
25111;SDS011;13092;51.996;4.458;2024-02-23T10:27:29;40.10;;;36.47;;
25111;SDS011;13092;51.996;4.458;2024-02-23T10:29:58;40.70;;;37.00;;
25111;SDS011;13092;51.996;4.458;2024-02-23T10:32:27;40.22;;;36.55;;
25111;SDS011;13092;51.996;4.458;2024-02-23T10:34:58;40.13;;;36.53;;
25111;SDS011;13092;51.996;4.458;2024-02-23T10:37:30;40.25;;;36.85;;
25111;SDS011;13092;51.996;4.458;2024-02-23T10:40:02;42.22;;;38.45;;
25111;SDS011;13092;51.996;4.458;2024-02-23T10:42:35;41.33;;;37.67;;
25111;SDS011;13092;51.996;4.458;2024-02-23T10:45:06;39.88;;;36.38;;
25111;SDS011;13092;51.996;4.458;2024-02-23T10:47:36;41.20;;;37.53;;
25111;SDS011;13092;51.996;4.458;2024-02-23T10:50:05;41.30;;;37.55;;
25111;SDS011;13092;51.996;4.458;2024-02-23T10:52:34;41.72;;;38.00;;
25111;SDS011;13092;51.996;4.458;2024-02-23T10:55:03;43.10;;;38.67;;
25111;SDS011;13092;51.996;4.458;2024-02-23T10:57:34;41.45;;;37.80;;
25111;SDS011;13092;51.996;4.458;2024-02-23T11:00:03;41.45;;;37.90;;
25111;SDS011;13092;51.996;4.458;2024-02-23T11:02:33;41.63;;;37.90;;
25111;SDS011;13092;51.996;4.458;2024-02-23T11:05:06;42.20;;;38.70;;
25111;SDS011;13092;51.996;4.458;2024-02-23T11:07:39;42.53;;;39.13;;
25111;SDS011;13092;51.996;4.458;2024-02-23T11:10:07;43.28;;;39.72;;
25111;SDS011;13092;51.996;4.458;2024-02-23T11:12:36;42.33;;;38.55;;
25111;SDS011;13092;51.996;4.458;2024-02-23T11:15:04;40.97;;;37.40;;
25111;SDS011;13092;51.996;4.458;2024-02-23T11:17:35;41.63;;;38.05;;
25111;SDS011;13092;51.996;4.458;2024-02-23T11:20:06;41.55;;;38.05;;
25111;SDS011;13092;51.996;4.458;2024-02-23T11:22:35;41.88;;;38.28;;
25111;SDS011;13092;51.996;4.458;2024-02-23T11:25:05;42.85;;;39.08;;
25111;SDS011;13092;51.996;4.458;2024-02-23T11:27:36;41.83;;;38.10;;
25111;SDS011;13092;51.996;4.458;2024-02-23T11:30:07;40.63;;;37.13;;
25111;SDS011;13092;51.996;4.458;2024-02-23T11:32:38;42.85;;;39.05;;
25111;SDS011;13092;51.996;4.458;2024-02-23T11:35:08;42.10;;;38.50;;
25111;SDS011;13092;51.996;4.458;2024-02-23T11:37:45;43.42;;;39.55;;
25111;SDS011;13092;51.996;4.458;2024-02-23T11:40:15;43.55;;;39.88;;
25111;SDS011;13092;51.996;4.458;2024-02-23T11:42:45;43.58;;;39.88;;
25111;SDS011;13092;51.996;4.458;2024-02-23T11:45:15;43.70;;;40.00;;
25111;SDS011;13092;51.996;4.458;2024-02-23T11:47:44;42.53;;;39.08;;
25111;SDS011;13092;51.996;4.458;2024-02-23T11:50:13;43.30;;;39.47;;
25111;SDS011;13092;51.996;4.458;2024-02-23T11:52:42;44.53;;;40.38;;
25111;SDS011;13092;51.996;4.458;2024-02-23T11:55:10;43.45;;;39.65;;
25111;SDS011;13092;51.996;4.458;2024-02-23T11:57:40;43.58;;;40.00;;
25111;SDS011;13092;51.996;4.458;2024-02-23T12:00:14;44.00;;;40.13;;
25111;SDS011;13092;51.996;4.458;2024-02-23T12:02:44;44.22;;;40.25;;
25111;SDS011;13092;51.996;4.458;2024-02-23T12:05:15;43.10;;;39.50;;
25111;SDS011;13092;51.996;4.458;2024-02-23T12:07:44;44.28;;;40.58;;
25111;SDS011;13092;51.996;4.458;2024-02-23T12:10:13;42.83;;;39.13;;
25111;SDS011;13092;51.996;4.458;2024-02-23T12:12:41;42.47;;;38.88;;
25111;SDS011;13092;51.996;4.458;2024-02-23T12:15:10;43.47;;;39.70;;
25111;SDS011;13092;51.996;4.458;2024-02-23T12:17:47;42.13;;;38.53;;
25111;SDS011;13092;51.996;4.458;2024-02-23T12:20:16;42.53;;;38.85;;
25111;SDS011;13092;51.996;4.458;2024-02-23T12:22:45;41.08;;;37.67;;
25111;SDS011;13092;51.996;4.458;2024-02-23T12:25:14;43.38;;;39.80;;
25111;SDS011;13092;51.996;4.458;2024-02-23T12:27:42;42.92;;;39.33;;
25111;SDS011;13092;51.996;4.458;2024-02-23T12:30:13;42.60;;;39.28;;
25111;SDS011;13092;51.996;4.458;2024-02-23T12:32:42;42.50;;;39.00;;
25111;SDS011;13092;51.996;4.458;2024-02-23T12:35:12;40.55;;;37.38;;
25111;SDS011;13092;51.996;4.458;2024-02-23T12:37:42;40.95;;;37.85;;
25111;SDS011;13092;51.996;4.458;2024-02-23T12:40:12;41.45;;;38.03;;
25111;SDS011;13092;51.996;4.458;2024-02-23T12:42:40;42.70;;;39.40;;
25111;SDS011;13092;51.996;4.458;2024-02-23T12:45:09;42.22;;;38.75;;
25111;SDS011;13092;51.996;4.458;2024-02-23T12:47:37;42.13;;;38.65;;
25111;SDS011;13092;51.996;4.458;2024-02-23T12:50:07;43.08;;;39.53;;
25111;SDS011;13092;51.996;4.458;2024-02-23T12:52:38;41.42;;;38.42;;
25111;SDS011;13092;51.996;4.458;2024-02-23T12:55:06;42.22;;;39.03;;
25111;SDS011;13092;51.996;4.458;2024-02-23T12:57:35;45.63;;;41.92;;
25111;SDS011;13092;51.996;4.458;2024-02-23T13:00:03;43.97;;;40.47;;
25111;SDS011;13092;51.996;4.458;2024-02-23T13:02:32;46.40;;;42.63;;
25111;SDS011;13092;51.996;4.458;2024-02-23T13:05:00;43.80;;;40.42;;
25111;SDS011;13092;51.996;4.458;2024-02-23T13:07:29;43.05;;;39.95;;
25111;SDS011;13092;51.996;4.458;2024-02-23T13:09:58;42.13;;;39.22;;
25111;SDS011;13092;51.996;4.458;2024-02-23T13:12:26;42.58;;;39.65;;
25111;SDS011;13092;51.996;4.458;2024-02-23T13:14:55;41.85;;;38.92;;
25111;SDS011;13092;51.996;4.458;2024-02-23T13:17:23;41.90;;;39.00;;
25111;SDS011;13092;51.996;4.458;2024-02-23T13:19:52;42.63;;;39.72;;
25111;SDS011;13092;51.996;4.458;2024-02-23T13:22:36;41.58;;;38.80;;
25111;SDS011;13092;51.996;4.458;2024-02-23T13:25:06;42.70;;;39.70;;
25111;SDS011;13092;51.996;4.458;2024-02-23T13:27:34;43.05;;;40.05;;
25111;SDS011;13092;51.996;4.458;2024-02-23T13:30:03;43.38;;;40.47;;
25111;SDS011;13092;51.996;4.458;2024-02-23T13:32:32;42.03;;;39.13;;
25111;SDS011;13092;51.996;4.458;2024-02-23T13:35:00;43.75;;;40.75;;
25111;SDS011;13092;51.996;4.458;2024-02-23T13:37:31;43.85;;;40.83;;
25111;SDS011;13092;51.996;4.458;2024-02-23T13:40:02;42.97;;;39.88;;
25111;SDS011;13092;51.996;4.458;2024-02-23T13:42:35;44.13;;;41.13;;
25111;SDS011;13092;51.996;4.458;2024-02-23T13:45:06;43.25;;;40.22;;
25111;SDS011;13092;51.996;4.458;2024-02-23T13:47:40;42.63;;;39.63;;
25111;SDS011;13092;51.996;4.458;2024-02-23T13:50:24;45.45;;;42.25;;
25111;SDS011;13092;51.996;4.458;2024-02-23T13:52:53;43.90;;;40.80;;
25111;SDS011;13092;51.996;4.458;2024-02-23T13:55:22;43.60;;;40.60;;
25111;SDS011;13092;51.996;4.458;2024-02-23T13:57:51;43.45;;;40.55;;
25111;SDS011;13092;51.996;4.458;2024-02-23T14:00:19;44.08;;;40.97;;
25111;SDS011;13092;51.996;4.458;2024-02-23T14:02:48;43.88;;;40.78;;
25111;SDS011;13092;51.996;4.458;2024-02-23T14:05:16;43.45;;;40.38;;
25111;SDS011;13092;51.996;4.458;2024-02-23T14:07:45;42.97;;;39.78;;
25111;SDS011;13092;51.996;4.458;2024-02-23T14:10:13;43.15;;;40.13;;
25111;SDS011;13092;51.996;4.458;2024-02-23T14:12:42;43.95;;;40.85;;
25111;SDS011;13092;51.996;4.458;2024-02-23T14:15:11;43.92;;;40.67;;
25111;SDS011;13092;51.996;4.458;2024-02-23T14:17:39;43.80;;;40.30;;
25111;SDS011;13092;51.996;4.458;2024-02-23T14:20:08;44.17;;;41.05;;
25111;SDS011;13092;51.996;4.458;2024-02-23T14:22:37;44.75;;;41.55;;
25111;SDS011;13092;51.996;4.458;2024-02-23T14:25:05;43.75;;;40.55;;
25111;SDS011;13092;51.996;4.458;2024-02-23T14:27:34;42.60;;;39.60;;
25111;SDS011;13092;51.996;4.458;2024-02-23T14:30:02;43.33;;;40.08;;
25111;SDS011;13092;51.996;4.458;2024-02-23T14:32:32;43.92;;;40.80;;